Time;durP1;ratioP1;P1;durP2;ratioP2;P2;SDS_P1;SDS_P2;PMS_P1;PMS_P2;Temp;Humidity;BMP_temperature;BMP_pressure;BME280_temperature;BME280_humidity;BME280_pressure;Samples;Min_cycle;Max_cycle;Signal;HPM_P1;HPM_P2
2022/05/25 00:02:17;;;;;;;;;1.00;1.00;;;;;22.60;36.46;100943.31;4997968;28;45735;-55
2022/05/25 00:04:44;;;;;;;;;0.00;0.00;;;;;22.60;36.43;100945.97;4997789;28;45799;-53
2022/05/25 00:07:11;;;;;;;;;0.50;0.50;;;;;22.59;36.69;100941.63;4998069;28;45368;-52
2022/05/25 00:09:36;;;;;;;;;0.00;0.00;;;;;22.60;36.73;100943.31;4998019;28;45344;-56
2022/05/25 00:12:01;;;;;;;;;1.00;1.00;;;;;22.58;36.44;100945.19;4997847;28;45515;-57
2022/05/25 00:14:27;;;;;;;;;0.50;0.50;;;;;22.58;36.43;100939.91;4997833;28;45447;-56
2022/05/25 00:16:52;;;;;;;;;0.00;0.00;;;;;22.57;36.51;100933.78;4998223;28;45404;-56
2022/05/25 00:22:02;;;;;;;;;1.50;1.00;;;;;22.55;36.57;100931.22;4997651;28;45486;-53
2022/05/25 00:24:27;;;;;;;;;2.25;1.00;;;;;22.57;36.49;100933.78;4996479;28;45463;-53
2022/05/25 00:26:52;;;;;;;;;1.00;0.50;;;;;;;;4998105;28;45420;-55
2022/05/25 00:29:18;;;;;;;;;0.33;0.33;;;;;22.57;36.92;100930.28;4997962;28;45618;-53
2022/05/25 00:31:43;;;;;;;;;0.50;0.50;;;;;22.53;36.70;100930.50;4997540;28;46484;-56
2022/05/25 00:34:08;;;;;;;;;0.00;0.00;;;;;22.54;36.61;100932.16;4997434;28;45398;-57
2022/05/25 00:36:34;;;;;;;;;1.00;1.00;;;;;22.55;36.65;100941.81;4997554;28;45430;-55
2022/05/25 00:38:59;;;;;;;;;0.00;0.00;;;;;22.53;36.45;100938.44;4997787;28;45408;-55
2022/05/25 00:41:28;;;;;;;;;0.25;0.25;;;;;22.53;36.65;100937.56;4997580;28;46149;-56
2022/05/25 00:43:54;;;;;;;;;0.00;0.00;;;;;22.53;36.89;100945.50;4997686;28;45399;-54
2022/05/25 00:46:21;;;;;;;;;2.00;0.00;;;;;22.52;36.79;100952.56;4997457;28;45405;-55
2022/05/25 00:48:51;;;;;;;;;2.00;0.50;;;;;22.52;36.98;100957.84;4997557;28;45308;-53
2022/05/25 00:51:27;;;;;;;;;0.50;0.50;;;;;22.52;36.84;100947.28;4997121;28;46520;-55
2022/05/25 00:54:07;;;;;;;;;1.00;1.00;;;;;22.51;36.90;100953.53;5012448;28;45202;-53
2022/05/25 00:56:35;;;;;;;;;1.50;1.00;;;;;22.52;37.20;100963.13;5012461;28;45368;-55
2022/05/25 00:59:06;;;;;;;;;1.25;0.00;;;;;22.51;36.96;100960.56;5011788;28;45566;-53
2022/05/25 01:01:32;;;;;;;;;0.00;0.00;;;;;22.50;36.77;100954.47;4997020;28;45439;-53
2022/05/25 01:03:58;;;;;;;;;0.75;0.75;;;;;22.49;36.93;100952.75;4996923;28;45489;-54
2022/05/25 01:06:38;;;;;;;;;0.00;0.00;;;;;22.51;36.64;100958.81;4997372;28;45399;-53
2022/05/25 01:09:22;;;;;;;;;1.00;1.00;;;;;22.50;36.79;100964.16;4997227;28;45253;-54
2022/05/25 01:12:26;;;;;;;;;1.00;1.00;;;;;22.49;36.85;100965.97;5012268;28;48176;-53
2022/05/25 01:15:01;;;;;;;;;0.00;0.00;;;;;22.50;37.04;100972.06;4988867;28;45692;-53
2022/05/25 01:17:32;;;;;;;;;1.00;1.00;;;;;22.49;36.92;100979.16;4997489;28;45341;-53
2022/05/25 01:20:06;;;;;;;;;2.50;1.00;;;;;22.49;36.77;100983.63;4997315;28;45470;-54
2022/05/25 01:22:47;;;;;;;;;0.25;0.25;;;;;22.50;36.90;100980.00;4996853;28;46380;-56
2022/05/25 01:25:34;;;;;;;;;1.00;1.00;;;;;22.49;36.91;100981.81;4996881;28;45758;-56
2022/05/25 01:28:14;;;;;;;;;0.75;0.75;;;;;22.49;36.93;100986.25;5011991;28;45300;-50
2022/05/25 01:30:47;;;;;;;;;0.00;0.00;;;;;22.49;36.88;100975.69;4997192;28;45380;-50
2022/05/25 01:33:19;;;;;;;;;0.00;0.00;;;;;22.48;36.99;100977.47;4996794;28;45741;-56
2022/05/25 01:36:08;;;;;;;;;0.00;0.00;;;;;22.48;36.83;100984.56;4996534;28;45293;-52
2022/05/25 01:38:47;;;;;;;;;0.00;0.00;;;;;22.47;36.82;100988.97;4996789;28;45352;-54
2022/05/25 01:41:39;;;;;;;;;0.00;0.00;;;;;22.47;36.88;100994.25;4996634;28;45426;-54
2022/05/25 01:44:14;;;;;;;;;0.00;0.00;;;;;22.47;37.08;100990.78;4996276;28;46081;-52
2022/05/25 01:46:44;;;;;;;;;0.00;0.00;;;;;22.46;37.19;100997.84;4996540;28;45800;-54
2022/05/25 01:49:19;;;;;;;;;0.00;0.00;;;;;22.45;36.92;100993.50;4996591;28;45339;-54
2022/05/25 01:51:54;;;;;;;;;1.00;1.00;;;;;22.48;37.46;101005.69;4996682;28;45551;-53
2022/05/25 01:54:23;;;;;;;;;1.00;1.00;;;;;22.47;37.20;101001.34;4995068;28;45487;-55
2022/05/25 01:56:55;;;;;;;;;0.00;0.00;;;;;22.46;37.00;101005.75;4996383;28;45467;-54
2022/05/25 01:59:21;;;;;;;;;0.00;0.00;;;;;22.45;36.89;101004.06;4996563;28;45324;-53
2022/05/25 02:04:47;;;;;;;;;0.00;0.00;;;;;22.45;37.15;101006.69;4996037;28;45416;-53
2022/05/25 02:07:32;;;;;;;;;1.00;1.00;;;;;22.45;37.40;101004.06;4996180;28;45302;-54
2022/05/25 02:10:05;;;;;;;;;1.00;1.00;;;;;22.46;37.32;101004.94;4997330;28;45329;-52
2022/05/25 02:12:45;;;;;;;;;0.00;0.00;;;;;22.46;37.12;101007.56;4999982;28;45255;-52
2022/05/25 02:15:28;;;;;;;;;0.00;0.00;;;;;22.44;37.21;101001.53;4999502;28;46111;-53
2022/05/25 02:18:34;;;;;;;;;0.00;0.00;;;;;22.44;37.29;101012.91;4999752;28;45368;-53
2022/05/25 02:21:14;;;;;;;;;0.00;0.00;;;;;22.43;37.35;101013.03;4999564;28;45416;-52
2022/05/25 02:23:48;;;;;;;;;1.50;0.25;;;;;22.44;37.34;101017.38;4999699;28;45288;-55
2022/05/25 02:26:37;;;;;;;;;0.00;0.00;;;;;22.44;37.17;101017.38;5014591;28;48325;-55
2022/05/25 02:29:13;;;;;;;;;0.00;0.00;;;;;22.42;37.22;101020.13;4999169;28;45700;-53
2022/05/25 02:32:03;;;;;;;;;1.00;1.00;;;;;22.43;37.38;101020.94;4999419;28;45312;-53
2022/05/25 02:34:28;;;;;;;;;2.00;0.00;;;;;22.42;37.52;101012.19;4999821;28;45320;-56
2022/05/25 02:36:57;;;;;;;;;0.50;0.50;;;;;22.42;37.68;101021.88;4999110;28;46850;-52
2022/05/25 02:39:23;;;;;;;;;0.00;0.00;;;;;22.41;37.40;101018.41;4999243;28;45651;-54
2022/05/25 02:41:53;;;;;;;;;0.50;0.50;;;;;22.41;37.42;101026.34;4999112;28;45400;-54
2022/05/25 02:44:19;;;;;;;;;0.00;0.00;;;;;22.41;37.74;101031.63;4999451;28;45571;-51
2022/05/25 02:46:46;;;;;;;;;0.00;0.00;;;;;22.40;37.50;101029.88;4999145;28;46722;-49
2022/05/25 02:49:11;;;;;;;;;0.00;0.00;;;;;22.39;37.47;101030.81;4999215;28;45222;-51
2022/05/25 02:51:37;;;;;;;;;0.75;0.75;;;;;22.40;37.59;101037.81;4999175;28;45755;-48
2022/05/25 02:54:03;;;;;;;;;0.00;0.00;;;;;22.39;37.60;101033.47;4999440;28;45381;-50
2022/05/25 02:56:29;;;;;;;;;2.00;0.00;;;;;22.40;37.47;101035.16;4999283;28;45269;-50
2022/05/25 02:58:54;;;;;;;;;0.00;0.00;;;;;22.39;37.48;101036.94;4999151;28;45194;-52
2022/05/25 03:01:20;;;;;;;;;1.00;1.00;;;;;22.38;37.51;101042.31;4999032;28;45175;-53
2022/05/25 03:03:45;;;;;;;;;0.00;0.00;;;;;22.37;37.51;101040.63;4999451;28;45511;-50
2022/05/25 03:06:10;;;;;;;;;0.00;0.00;;;;;22.38;37.75;101040.53;4998806;28;45470;-47
2022/05/25 03:08:36;;;;;;;;;0.50;0.00;;;;;22.38;37.51;101042.31;4998863;28;45340;-49
2022/05/25 03:11:03;;;;;;;;;0.50;0.50;;;;;22.38;37.48;101047.59;4999047;28;45399;-56
2022/05/25 03:13:29;;;;;;;;;0.25;0.00;;;;;22.37;37.60;101045.91;4999373;28;45518;-56
2022/05/25 03:15:57;;;;;;;;;0.00;0.00;;;;;22.37;37.63;101056.47;4998533;28;45619;-50
2022/05/25 03:18:22;;;;;;;;;0.50;0.50;;;;;22.36;37.86;101054.75;4997542;28;45351;-51
2022/05/25 03:20:49;;;;;;;;;0.00;0.00;;;;;22.34;37.46;101049.59;4998906;28;45728;-50
2022/05/25 03:23:17;;;;;;;;;1.00;1.00;;;;;22.35;37.69;101069.78;4998038;28;45670;-52
2022/05/25 03:25:43;;;;;;;;;0.00;0.00;;;;;22.35;37.69;101068.91;4998375;28;45491;-52
2022/05/25 03:28:08;;;;;;;;;0.00;0.00;;;;;22.36;37.57;101071.47;4998586;28;45429;-50
2022/05/25 03:30:34;;;;;;;;;0.00;0.00;;;;;22.35;37.95;101079.47;4998931;28;45345;-46
2022/05/25 03:32:59;;;;;;;;;0.00;0.00;;;;;22.35;37.67;101082.09;4999000;28;45296;-51
2022/05/25 03:35:25;;;;;;;;;0.25;0.25;;;;;22.31;37.80;101078.81;4996984;28;47532;-55
2022/05/25 03:37:50;;;;;;;;;0.00;0.00;;;;;22.33;37.70;101082.22;4998485;28;45376;-50
2022/05/25 03:40:16;;;;;;;;;0.25;0.25;;;;;22.33;37.86;101083.97;4998483;28;45276;-48
2022/05/25 03:42:43;;;;;;;;;0.00;0.00;;;;;22.34;37.68;101088.31;4998408;28;45559;-50
2022/05/25 03:45:10;;;;;;;;;1.00;1.00;;;;;22.33;37.89;101095.41;4998224;28;46533;-50
2022/05/25 03:47:35;;;;;;;;;1.00;0.50;;;;;22.32;37.78;101100.78;4998347;28;45642;-51
2022/05/25 03:50:00;;;;;;;;;1.00;1.00;;;;;22.32;37.88;101106.91;4998694;28;45451;-50
2022/05/25 03:52:26;;;;;;;;;1.00;1.00;;;;;22.32;38.00;101109.56;4998353;28;45643;-50
2022/05/25 03:54:52;;;;;;;;;1.00;1.00;;;;;22.31;37.73;101114.94;4997946;28;45394;-51
2022/05/25 03:57:18;;;;;;;;;0.00;0.00;;;;;22.30;37.57;101122.00;4998085;28;45380;-50
2022/05/25 03:59:45;;;;;;;;;1.00;1.00;;;;;22.32;37.78;101124.56;4998114;28;45320;-51
2022/05/25 04:02:10;;;;;;;;;0.00;0.00;;;;;22.31;37.95;101122.84;4998330;28;45434;-50
2022/05/25 04:04:35;;;;;;;;;0.25;0.00;;;;;22.31;37.93;101117.56;4997911;28;45424;-54
2022/05/25 04:07:01;;;;;;;;;0.25;0.00;;;;;22.30;37.72;101121.16;4998319;28;45355;-49
2022/05/25 04:09:26;;;;;;;;;0.00;0.00;;;;;22.30;37.89;101121.16;4998255;28;45332;-50
2022/05/25 04:11:52;;;;;;;;;0.50;0.50;;;;;22.30;37.91;101118.50;4998142;28;45501;-49
2022/05/25 04:14:18;;;;;;;;;0.75;0.75;;;;;22.30;37.86;101121.16;4997608;28;46213;-52
2022/05/25 04:16:45;;;;;;;;;1.00;1.00;;;;;22.29;37.99;101122.09;4997782;28;45206;-48
2022/05/25 04:19:10;;;;;;;;;2.00;0.25;;;;;22.29;37.74;101120.28;4996701;28;45272;-49
2022/05/25 04:21:35;;;;;;;;;1.50;1.00;;;;;22.28;37.81;101120.38;4998321;28;45218;-49
2022/05/25 04:24:02;;;;;;;;;0.00;0.00;;;;;22.28;38.03;101123.03;4997829;28;46556;-51
2022/05/25 04:26:30;;;;;;;;;0.00;0.00;;;;;22.29;37.92;101130.00;4997636;28;45399;-46
2022/05/25 04:28:55;;;;;;;;;0.00;0.00;;;;;22.28;37.74;101125.66;4997677;28;45405;-48
2022/05/25 04:31:21;;;;;;;;;0.75;0.75;;;;;22.28;38.07;101123.03;4997858;28;45527;-52
2022/05/25 04:33:46;;;;;;;;;0.00;0.00;;;;;22.27;37.84;101130.09;4996143;28;50938;-50
2022/05/25 04:36:11;;;;;;;;;0.00;0.00;;;;;22.27;38.03;101132.72;4997376;28;45244;-47
2022/05/25 04:38:37;;;;;;;;;1.00;1.00;;;;;22.26;38.00;101143.38;4997718;28;45321;-51
2022/05/25 04:41:03;;;;;;;;;0.00;0.00;;;;;22.26;37.93;101141.63;4997936;28;45631;-51
2022/05/25 04:43:28;;;;;;;;;0.00;0.00;;;;;22.26;37.71;101138.97;4997460;28;45461;-52
2022/05/25 04:45:54;;;;;;;;;0.50;0.50;;;;;22.26;37.87;101146.03;4997343;28;45236;-52
2022/05/25 04:48:23;;;;;;;;;0.00;0.00;;;;;22.26;37.94;101146.03;4997517;28;45235;-50
2022/05/25 04:50:50;;;;;;;;;0.00;0.00;;;;;22.25;38.11;101150.47;4997446;28;45491;-46
2022/05/25 04:53:18;;;;;;;;;1.00;1.00;;;;;22.26;38.08;101156.59;4997218;28;45406;-51
2022/05/25 04:58:33;;;;;;;;;0.75;0.75;;;;;22.24;37.98;101160.16;4997408;28;45209;-54
2022/05/25 05:00:59;;;;;;;;;1.00;1.00;;;;;22.24;37.96;101160.16;4995885;28;45398;-49
2022/05/25 05:03:26;;;;;;;;;1.00;1.00;;;;;22.24;38.12;101167.25;4996994;28;46450;-54
2022/05/25 05:05:52;;;;;;;;;0.25;0.25;;;;;22.24;37.92;101173.38;4996970;28;45253;-55
2022/05/25 05:08:18;;;;;;;;;0.50;0.50;;;;;22.25;38.04;101163.66;4997176;28;45273;-56
2022/05/25 05:10:44;;;;;;;;;1.00;1.00;;;;;22.24;37.86;101173.38;4997332;28;45578;-53
2022/05/25 05:13:09;;;;;;;;;1.00;1.00;;;;;22.26;37.93;101172.44;4996829;28;45281;-48
2022/05/25 05:15:36;;;;;;;;;0.00;0.00;;;;;22.24;37.99;101170.72;4997153;28;45360;-52
2022/05/25 05:18:02;;;;;;;;;1.00;1.00;;;;;22.25;37.67;101171.59;4996973;28;45337;-49
2022/05/25 05:20:28;;;;;;;;;0.25;0.25;;;;;22.25;38.18;101179.50;4997100;28;45333;-53
2022/05/25 05:22:54;;;;;;;;;1.00;1.00;;;;;22.26;38.27;101183.00;4996676;28;46440;-51
2022/05/25 05:25:20;;;;;;;;;1.00;0.50;;;;;22.26;38.17;101196.19;4996533;28;50922;-49
2022/05/25 05:27:45;;;;;;;;;1.00;1.00;;;;;22.26;37.73;101193.56;4996860;28;45365;-50
2022/05/25 05:30:14;;;;;;;;;1.00;1.00;;;;;22.26;37.62;101190.91;4996896;28;45447;-48
2022/05/25 05:32:39;;;;;;;;;1.00;1.00;;;;;22.25;37.85;101190.06;4995589;28;48098;-49
2022/05/25 05:35:05;;;;;;;;;1.00;1.00;;;;;22.24;37.87;101191.00;4996400;28;45494;-51
2022/05/25 05:37:37;;;;;;;;;1.00;0.50;;;;;22.23;37.88;101192.78;4996818;28;45360;-48
2022/05/25 05:40:07;;;;;;;;;3.50;1.00;;;;;22.20;38.10;101190.34;4996822;28;45447;-51
2022/05/25 05:42:36;;;;;;;;;1.25;1.00;;;;;22.21;38.13;101177.97;4996282;28;46442;-52
2022/05/25 05:45:09;;;;;;;;;1.00;1.00;;;;;22.20;38.08;101174.50;4995947;28;45405;-50
2022/05/25 05:47:42;;;;;;;;;1.25;1.00;;;;;22.20;37.98;101177.13;4995497;28;45332;-49
2022/05/25 05:50:09;;;;;;;;;1.00;1.00;;;;;22.19;38.34;101178.06;4996781;28;45438;-51
2022/05/25 05:52:35;;;;;;;;;1.00;1.00;;;;;22.20;38.31;101171.00;4996325;28;45280;-51
2022/05/25 05:55:01;;;;;;;;;1.00;1.00;;;;;22.17;38.30;101169.38;4996410;28;45261;-52
2022/05/25 05:57:27;;;;;;;;;1.00;1.00;;;;;22.18;37.99;101175.50;4996386;28;45255;-50
2022/05/25 05:59:53;;;;;;;;;2.00;2.00;;;;;22.16;37.76;101174.75;4995463;28;45582;-55
2022/05/25 06:02:18;;;;;;;;;3.00;1.50;;;;;22.04;37.82;101168.38;4996173;28;46412;-53
2022/05/25 06:04:43;;;;;;;;;2.75;2.00;;;;;21.98;37.65;101179.28;4996341;28;45233;-53
2022/05/25 06:07:09;;;;;;;;;2.50;2.00;;;;;21.88;37.77;101176.31;4996738;28;45324;-53
2022/05/25 06:09:34;;;;;;;;;1.50;1.50;;;;;21.79;37.96;101185.56;4996504;28;45273;-52
2022/05/25 06:12:00;;;;;;;;;2.00;2.00;;;;;21.74;37.81;101198.19;4995889;28;48604;-47
2022/05/25 06:14:25;;;;;;;;;2.50;1.50;;;;;21.69;38.28;101202.84;5011205;28;45361;-48
2022/05/25 06:19:37;;;;;;;;;2.75;1.50;;;;;21.56;38.07;101211.38;4996373;28;45420;-45
2022/05/25 06:22:15;;;;;;;;;0.00;0.00;;;;;21.51;38.27;101208.16;4996036;28;45450;-48
2022/05/25 06:24:43;;;;;;;;;0.75;0.50;;;;;21.48;38.24;101218.84;4996116;28;45956;-46
2022/05/25 06:27:11;;;;;;;;;1.00;1.00;;;;;21.45;38.46;101217.25;4996431;28;45311;-53
2022/05/25 06:29:42;;;;;;;;;1.00;1.00;;;;;21.43;38.29;101221.75;4995024;28;45497;-54
2022/05/25 06:32:10;;;;;;;;;1.25;1.25;;;;;21.41;38.37;101233.31;4996221;28;46274;-52
2022/05/25 06:34:37;;;;;;;;;1.00;1.00;;;;;21.38;38.20;101230.84;4995777;28;45335;-52
2022/05/25 06:37:03;;;;;;;;;1.00;1.00;;;;;21.36;38.71;101232.69;4995900;28;45446;-49
2022/05/25 06:39:34;;;;;;;;;1.25;1.25;;;;;21.35;38.06;101238.91;4996121;28;45353;-51
2022/05/25 06:42:00;;;;;;;;;1.00;1.00;;;;;21.35;38.46;101236.25;4995708;28;46642;-53
2022/05/25 06:44:25;;;;;;;;;2.00;1.50;;;;;21.35;38.19;101249.44;4995770;28;45241;-50
2022/05/25 06:46:51;;;;;;;;;3.50;1.00;;;;;21.36;37.97;101248.50;4995898;28;45249;-49
2022/05/25 06:49:17;;;;;;;;;2.00;2.00;;;;;21.35;38.12;101254.72;4995865;28;45456;-49
2022/05/25 06:51:43;;;;;;;;;1.00;1.00;;;;;21.31;37.67;101260.16;4995865;28;45660;-48
2022/05/25 06:54:11;;;;;;;;;1.00;1.00;;;;;21.30;38.12;101255.81;4995746;28;45410;-49
2022/05/25 06:56:36;;;;;;;;;2.00;2.00;;;;;21.30;38.17;101258.47;4995992;28;45302;-49
2022/05/25 06:59:02;;;;;;;;;2.25;0.75;;;;;21.29;38.22;101250.63;4999104;28;45497;-49
2022/05/25 07:01:28;;;;;;;;;3.25;2.00;;;;;21.27;38.21;101253.34;4998971;28;46318;-52
2022/05/25 07:03:53;;;;;;;;;1.50;1.50;;;;;21.25;37.99;101267.53;4998845;28;45229;-46
2022/05/25 07:06:22;;;;;;;;;1.75;1.50;;;;;21.26;37.97;101263.97;4997544;28;45868;-54
2022/05/25 07:08:47;;;;;;;;;1.75;1.00;;;;;21.25;38.17;101265.75;4998993;28;45411;-48
2022/05/25 07:11:13;;;;;;;;;1.75;1.75;;;;;21.25;38.17;101260.47;4997666;28;48493;-50
2022/05/25 07:13:40;;;;;;;;;1.75;1.00;;;;;21.23;38.37;101254.41;4998711;28;46034;-51
2022/05/25 07:16:09;;;;;;;;;1.00;1.00;;;;;21.25;38.39;101259.63;4997281;28;45405;-57
2022/05/25 07:18:34;;;;;;;;;1.00;1.00;;;;;21.25;37.86;101257.00;4998755;28;45244;-51
2022/05/25 07:21:06;;;;;;;;;1.25;1.25;;;;;21.24;38.35;101269.31;4998504;28;45735;-50
2022/05/25 07:23:32;;;;;;;;;3.50;2.00;;;;;21.24;38.34;101269.31;4998670;28;45226;-48
2022/05/25 07:25:57;;;;;;;;;3.25;1.75;;;;;21.25;37.97;101275.44;4998679;28;45284;-53
2022/05/25 07:28:22;;;;;;;;;2.00;1.75;;;;;21.29;38.01;101282.25;4998782;28;45551;-52
2022/05/25 07:30:51;;;;;;;;;2.00;2.00;;;;;21.28;38.37;101286.69;4998100;28;54791;-53
2022/05/25 07:33:17;;;;;;;;;1.50;1.50;;;;;21.30;38.54;101295.38;4998463;28;45392;-50
2022/05/25 07:35:43;;;;;;;;;2.25;2.00;;;;;21.30;38.21;101295.38;4998668;28;45494;-54
2022/05/25 07:38:08;;;;;;;;;1.00;1.00;;;;;21.32;38.26;101292.66;5013978;28;45307;-50
2022/05/25 07:40:38;;;;;;;;;1.00;1.00;;;;;21.37;38.13;101295.03;4998111;28;46322;-50
2022/05/25 07:43:08;;;;;;;;;3.00;1.50;;;;;21.41;37.94;101296.59;4998012;28;45330;-54
2022/05/25 07:45:35;;;;;;;;;1.25;1.25;;;;;21.48;37.90;101297.97;4998295;28;45348;-47
2022/05/25 07:48:00;;;;;;;;;1.00;1.00;;;;;21.51;37.88;101296.97;4996903;28;45511;-49
2022/05/25 07:50:26;;;;;;;;;2.75;1.00;;;;;21.56;37.95;101295.78;4997719;28;46460;-52
2022/05/25 07:52:55;;;;;;;;;1.75;1.00;;;;;21.58;37.94;101293.94;4997734;28;45301;-51
2022/05/25 07:55:21;;;;;;;;;2.00;1.00;;;;;21.62;37.31;101295.50;4997991;28;45298;-51
2022/05/25 07:57:46;;;;;;;;;5.50;1.00;;;;;21.65;37.39;101297.13;4998514;28;45566;-50
2022/05/25 08:00:14;;;;;;;;;1.00;1.00;;;;;21.67;37.32;101302.31;4997590;28;46254;-52
2022/05/25 08:05:43;;;;;;;;;1.00;1.00;;;;;21.74;37.31;101308.97;4996935;28;45356;-48
2022/05/25 08:08:13;;;;;;;;;0.00;0.00;;;;;21.77;37.33;101314.94;4997542;28;45458;-43
2022/05/25 08:10:42;;;;;;;;;1.00;1.00;;;;;21.81;37.22;101320.06;5013101;28;48422;-46
2022/05/25 08:13:08;;;;;;;;;1.00;1.00;;;;;21.82;36.91;101317.34;4997638;28;45399;-46
2022/05/25 08:15:33;;;;;;;;;1.00;1.00;;;;;21.81;36.90;101315.63;4997786;28;45360;-46
2022/05/25 08:17:59;;;;;;;;;1.00;1.00;;;;;21.85;36.49;101317.19;4998066;28;45427;-46
2022/05/25 08:20:25;;;;;;;;;0.75;0.75;;;;;21.87;36.87;101320.59;4997050;28;46754;-47
2022/05/25 08:22:50;;;;;;;;;1.75;1.00;;;;;21.89;36.44;101323.97;4997798;28;45360;-52
2022/05/25 08:25:18;;;;;;;;;1.50;1.50;;;;;21.90;36.79;101327.50;4998064;28;45274;-48
2022/05/25 08:27:44;;;;;;;;;0.75;0.75;;;;;21.91;36.41;101316.84;4997696;28;45583;-51
2022/05/25 08:30:15;;;;;;;;;1.00;1.00;;;;;21.93;36.58;101312.34;4997580;28;45551;-54
2022/05/25 08:32:40;;;;;;;;;1.00;1.00;;;;;21.93;36.39;101307.06;4997694;28;45319;-54
2022/05/25 08:35:07;;;;;;;;;1.00;1.00;;;;;21.93;36.30;101304.41;4997539;28;45407;-53
2022/05/25 08:37:32;;;;;;;;;1.00;1.00;;;;;21.96;36.79;101313.13;4997774;28;45566;-53
2022/05/25 08:39:57;;;;;;;;;2.00;1.00;;;;;22.00;36.92;101314.63;4997343;28;46280;-49
2022/05/25 08:42:29;;;;;;;;;1.50;1.50;;;;;22.03;36.85;101306.56;4996972;28;45336;-53
2022/05/25 08:44:56;;;;;;;;;4.00;3.00;;;;;22.04;36.84;101305.63;4997674;28;45316;-53
2022/05/25 08:47:21;;;;;;;;;1.50;1.25;;;;;22.04;36.77;101305.63;4997712;28;45577;-55
2022/05/25 08:49:49;;;;;;;;;1.75;1.75;;;;;22.10;36.61;101321.16;4996712;28;46323;-54
2022/05/25 08:52:29;;;;;;;;;1.50;0.00;;;;;22.12;36.88;101313.97;4997344;28;45166;-54
2022/05/25 08:54:55;;;;;;;;;1.00;1.00;;;;;22.13;36.82;101323.59;4997515;28;45410;-54
2022/05/25 08:57:30;;;;;;;;;1.00;1.00;;;;;22.14;37.25;101317.38;4997902;28;45987;-53
2022/05/25 09:00:03;;;;;;;;;3.00;1.00;;;;;22.17;36.76;101319.88;4997478;28;46755;-55
2022/05/25 09:02:52;;;;;;;;;1.00;0.75;;;;;22.19;36.84;101320.63;4997195;28;45787;-50
2022/05/25 09:05:36;;;;;;;;;3.00;1.00;;;;;22.21;36.72;101321.38;4997714;28;45338;-54
2022/05/25 09:08:22;;;;;;;;;1.00;1.00;;;;;22.23;36.43;101330.06;5012469;28;45551;-54
2022/05/25 09:10:55;;;;;;;;;1.00;1.00;;;;;22.23;36.65;101335.34;4997588;28;46738;-54
2022/05/25 09:13:40;;;;;;;;;1.00;1.00;;;;;22.26;36.74;101337.00;4997186;28;45312;-54
2022/05/25 09:16:17;;;;;;;;;0.00;0.00;;;;;22.26;36.69;101315.00;4997081;28;45308;-55
2022/05/25 09:18:58;;;;;;;;;0.50;0.50;;;;;22.29;36.43;101325.41;4997225;28;45341;-56
2022/05/25 09:21:29;;;;;;;;;0.50;0.50;;;;;22.31;36.48;101336.75;4996255;28;46656;-54
2022/05/25 09:23:57;;;;;;;;;1.00;1.00;;;;;22.30;36.53;101327.94;4996952;28;45685;-54
2022/05/25 09:26:22;;;;;;;;;0.00;0.00;;;;;22.33;36.45;101329.56;4997166;28;45361;-54
2022/05/25 09:28:52;;;;;;;;;0.00;0.00;;;;;22.32;36.23;101320.81;4997356;28;45557;-53
2022/05/25 09:31:24;;;;;;;;;0.00;0.00;;;;;22.33;36.23;101322.50;4996899;28;47256;-54
2022/05/25 09:33:58;;;;;;;;;1.00;1.00;;;;;22.36;36.39;101313.56;4997070;28;45454;-56
2022/05/25 09:36:34;;;;;;;;;0.00;0.00;;;;;22.37;36.36;101324.06;5012042;28;45341;-53
2022/05/25 09:39:23;;;;;;;;;1.75;1.00;;;;;22.37;36.25;101329.34;4996978;28;45396;-52
2022/05/25 09:41:57;;;;;;;;;0.00;0.00;;;;;22.38;36.13;101335.47;4996916;28;46736;-54
2022/05/25 09:44:23;;;;;;;;;0.75;0.75;;;;;22.39;35.97;101321.31;4996760;28;45208;-51
2022/05/25 09:46:57;;;;;;;;;2.00;2.00;;;;;22.38;36.23;101332.81;4996798;28;45408;-54
2022/05/25 09:49:40;;;;;;;;;1.00;1.00;;;;;22.41;35.85;101335.34;4996773;28;45474;-53
2022/05/25 09:52:14;;;;;;;;;1.75;1.00;;;;;22.41;35.81;101326.53;4996282;28;46513;-52
2022/05/25 09:54:46;;;;;;;;;1.75;1.00;;;;;22.42;36.15;101320.31;5011491;28;45433;-52
2022/05/25 09:57:17;;;;;;;;;2.00;1.00;;;;;22.42;35.93;101331.75;4996527;28;45430;-54
2022/05/25 09:59:49;;;;;;;;;0.00;0.00;;;;;22.43;35.89;101330.81;4996607;28;45571;-53
2022/05/25 10:02:41;;;;;;;;;0.00;0.00;;;;;22.44;35.71;101340.41;4996481;28;45478;-54
2022/05/25 10:05:13;;;;;;;;;0.00;0.00;;;;;22.44;35.45;101344.88;5011701;28;45854;-53
2022/05/25 10:07:49;;;;;;;;;0.00;0.00;;;;;22.45;35.62;101330.72;4996375;28;45310;-55
2022/05/25 10:10:24;;;;;;;;;0.00;0.00;;;;;22.45;35.94;101323.63;4996803;28;45783;-55
2022/05/25 10:13:19;;;;;;;;;0.00;0.00;;;;;22.46;35.63;101329.78;4996235;28;47243;-52
2022/05/25 10:15:51;;;;;;;;;0.50;0.00;;;;;22.48;35.47;101330.56;4996029;28;45249;-58
2022/05/25 10:18:31;;;;;;;;;0.00;0.00;;;;;22.48;35.49;101328.75;4996129;28;45399;-52
2022/05/25 10:20:57;;;;;;;;;1.00;1.00;;;;;22.48;35.35;101335.84;4996310;28;45445;-54
2022/05/25 10:23:25;;;;;;;;;0.00;0.00;;;;;22.50;35.51;101328.66;4996420;28;45465;-53
2022/05/25 10:25:56;;;;;;;;;1.00;1.00;;;;;22.50;35.44;101331.31;4994676;28;45690;-54
2022/05/25 10:28:34;;;;;;;;;0.00;0.00;;;;;22.50;35.25;101336.59;4996557;28;45353;-53
2022/05/25 10:37:07;;;;;;;;;0.25;0.25;;;;;22.51;35.59;101343.56;4999272;28;45670;-55
2022/05/25 10:39:38;;;;;;;;;0.00;0.00;;;;;22.51;35.29;101336.53;4999371;28;45368;-53
2022/05/25 10:42:16;;;;;;;;;1.00;1.00;;;;;22.52;35.28;101327.66;4999375;28;45258;-54
2022/05/25 10:44:53;;;;;;;;;0.00;0.00;;;;;22.52;35.36;101327.66;4999135;28;46344;-53
2022/05/25 10:47:37;;;;;;;;;1.00;1.00;;;;;22.53;35.14;101324.09;4999073;28;45686;-54
2022/05/25 10:50:08;;;;;;;;;2.00;1.00;;;;;22.52;35.43;101332.94;4999304;28;45505;-53
2022/05/25 10:52:38;;;;;;;;;0.50;0.50;;;;;22.52;35.32;101332.94;4999402;28;45238;-54
2022/05/25 10:55:05;;;;;;;;;0.00;0.00;;;;;22.53;35.17;101329.38;4998944;28;46544;-53
2022/05/25 10:57:46;;;;;;;;;0.00;0.00;;;;;22.57;35.24;101331.81;4998993;28;45393;-53
2022/05/25 11:00:40;;;;;;;;;0.25;0.25;;;;;22.56;35.12;101320.41;4999240;28;45557;-55
2022/05/25 11:03:27;;;;;;;;;0.25;0.25;;;;;22.58;35.14;101336.16;4962690;28;45243;-54
2022/05/25 11:06:23;;;;;;;;;1.75;0.25;;;;;22.57;35.00;101330.03;4999049;28;46477;-56
2022/05/25 11:09:26;;;;;;;;;1.00;1.00;;;;;22.58;35.26;101342.31;4999043;28;45771;-54
2022/05/25 11:12:13;;;;;;;;;0.25;0.25;;;;;22.59;35.09;101340.50;4998516;28;45454;-54
2022/05/25 11:14:58;;;;;;;;;0.25;0.25;;;;;22.59;35.18;101327.31;4999219;28;45366;-53
2022/05/25 11:17:38;;;;;;;;;1.50;1.00;;;;;22.57;35.24;101334.44;4999175;28;45499;-55
2022/05/25 11:20:32;;;;;;;;;0.00;0.00;;;;;22.59;35.01;101340.50;4998928;28;45631;-54
2022/05/25 11:23:33;;;;;;;;;0.00;0.00;;;;;22.60;35.06;101329.00;4999133;28;45222;-53
2022/05/25 11:26:22;;;;;;;;;0.00;0.00;;;;;22.60;35.08;101332.47;4997841;28;45474;-53
2022/05/25 11:29:06;;;;;;;;;1.00;1.00;;;;;22.61;35.07;101331.56;4998454;28;45659;-54
2022/05/25 11:32:00;;;;;;;;;0.50;0.00;;;;;22.61;34.92;101330.72;4998383;28;45662;-51
2022/05/25 11:34:50;;;;;;;;;3.00;0.00;;;;;22.61;34.84;101328.06;4981550;28;45459;-54
2022/05/25 11:37:37;;;;;;;;;1.25;1.00;;;;;22.61;35.10;101331.56;4998813;28;45638;-53
2022/05/25 11:40:08;;;;;;;;;1.00;1.00;;;;;22.62;35.11;101329.78;4996988;28;47607;-51
2022/05/25 11:43:12;;;;;;;;;1.00;0.25;;;;;22.61;35.10;101342.13;4997626;28;45330;-52
2022/05/25 11:46:02;;;;;;;;;0.25;0.25;;;;;22.62;34.74;101332.41;4998370;28;45229;-51
2022/05/25 11:48:36;;;;;;;;;0.00;0.00;;;;;22.62;34.78;101335.06;4998973;28;45281;-52
2022/05/25 11:51:37;;;;;;;;;0.00;0.00;;;;;22.63;34.93;101328.84;4998231;28;46243;-53
2022/05/25 11:54:14;;;;;;;;;1.25;0.00;;;;;22.64;34.61;101325.25;4956973;28;45282;-57
2022/05/25 11:57:06;;;;;;;;;0.00;0.00;;;;;22.64;35.05;101331.38;4992702;28;45411;-54
2022/05/25 12:00:06;;;;;;;;;0.00;0.00;;;;;22.65;34.72;101330.44;4998462;28;45534;-52
2022/05/25 12:02:44;;;;;;;;;0.00;0.00;;;;;22.66;34.85;101331.28;4998152;28;45368;-54
2022/05/25 12:05:18;;;;;;;;;0.00;0.00;;;;;22.66;34.68;101326.88;4998262;28;45752;-53
2022/05/25 12:08:11;;;;;;;;;0.00;0.00;;;;;22.67;34.64;101331.22;4998257;28;45372;-53